createdAt,value
2019-01-24T00:02:20.856Z,18.40
2019-01-24T00:04:50.511Z,17.90
2019-01-24T00:07:20.432Z,17.02
2019-01-24T00:09:50.198Z,17.42
2019-01-24T00:12:21.671Z,17.17
2019-01-24T00:14:51.367Z,15.45
2019-01-24T00:17:21.082Z,17.57
2019-01-24T00:19:50.971Z,17.60
2019-01-24T00:22:20.986Z,15.55
2019-01-24T00:24:52.510Z,18.05
2019-01-24T00:27:22.238Z,17.87
2019-01-24T00:29:52.024Z,18.60
2019-01-24T00:32:22.886Z,20.82
2019-01-24T00:34:52.576Z,18.90
2019-01-24T00:37:22.510Z,21.87
2019-01-24T00:39:52.419Z,18.92
2019-01-24T00:42:22.345Z,20.72
2019-01-24T00:44:52.042Z,20.10
2019-01-24T00:47:22.054Z,17.82
2019-01-24T00:49:51.801Z,18.67
2019-01-24T00:52:21.483Z,18.67
2019-01-24T00:54:51.123Z,19.12
2019-01-24T00:57:20.873Z,21.33
2019-01-24T00:59:53.631Z,19.32
2019-01-24T01:02:25.879Z,18.82
2019-01-24T01:04:55.542Z,20.20
2019-01-24T01:07:25.240Z,18.17
2019-01-24T01:09:55.069Z,17.95
2019-01-24T01:12:24.861Z,19.37
2019-01-24T01:14:54.703Z,19.20
2019-01-24T01:17:24.425Z,17.35
2019-01-24T01:19:54.092Z,21.90
2019-01-24T01:22:23.805Z,21.35
2019-01-24T01:24:53.516Z,18.73
2019-01-24T01:27:23.285Z,17.80
2019-01-24T01:29:52.918Z,20.45
2019-01-24T01:32:22.828Z,18.40
2019-01-24T01:34:52.540Z,18.48
2019-01-24T01:37:22.382Z,18.32
2019-01-24T01:39:52.251Z,18.57
2019-01-24T01:42:21.881Z,17.82
2019-01-24T01:44:51.550Z,19.02
2019-01-24T01:47:21.366Z,16.97
2019-01-24T01:49:51.193Z,19.35
2019-01-24T01:52:23.174Z,17.60
2019-01-24T01:54:52.874Z,18.27
2019-01-24T01:57:22.720Z,17.50
2019-01-24T01:59:52.411Z,18.27
2019-01-24T02:02:22.065Z,19.50
2019-01-24T02:04:51.786Z,17.50
2019-01-24T02:07:21.540Z,16.70
2019-01-24T02:09:51.201Z,17.87
2019-01-24T02:12:23.957Z,18.75
2019-01-24T02:14:53.610Z,18.82
2019-01-24T02:17:23.419Z,18.12
2019-01-24T02:19:53.312Z,16.15
2019-01-24T02:22:23.023Z,18.25
2019-01-24T02:24:54.777Z,18.85
2019-01-24T02:27:26.355Z,18.32
2019-01-24T02:29:56.340Z,18.75
2019-01-24T02:32:26.153Z,19.02
2019-01-24T02:34:55.794Z,16.65
2019-01-24T02:37:25.487Z,19.27
2019-01-24T02:39:55.278Z,17.90
2019-01-24T02:42:27.010Z,18.10
2019-01-24T02:44:56.725Z,18.50
2019-01-24T02:47:26.460Z,17.12
2019-01-24T02:49:57.246Z,16.17
2019-01-24T02:52:26.959Z,18.45
2019-01-24T02:54:56.655Z,18.10
2019-01-24T02:57:26.327Z,20.37
2019-01-24T02:59:56.164Z,19.30
2019-01-24T03:02:25.887Z,18.62
2019-01-24T03:04:57.139Z,18.98
2019-01-24T03:07:27.282Z,19.57
2019-01-24T03:09:57.180Z,18.25
2019-01-24T03:12:28.561Z,20.50
2019-01-24T03:14:58.286Z,21.48
2019-01-24T03:17:27.964Z,19.10
2019-01-24T03:19:57.653Z,21.12
2019-01-24T03:22:27.339Z,18.82
2019-01-24T03:24:57.383Z,19.60
2019-01-24T03:27:27.018Z,20.23
2019-01-24T03:29:56.655Z,21.10
2019-01-24T03:32:26.317Z,22.42
2019-01-24T03:34:55.963Z,20.10
2019-01-24T03:37:25.791Z,19.50
2019-01-24T03:39:55.483Z,21.65
2019-01-24T03:42:25.119Z,21.45
2019-01-24T03:44:54.798Z,21.30
2019-01-24T03:47:24.435Z,21.15
2019-01-24T03:49:54.138Z,22.20
2019-01-24T03:52:23.919Z,23.30
2019-01-24T03:54:53.566Z,21.00
2019-01-24T03:57:23.234Z,23.47
2019-01-24T03:59:52.929Z,22.15
2019-01-24T04:02:22.880Z,23.73
2019-01-24T04:04:52.532Z,19.57
2019-01-24T04:07:22.192Z,21.70
2019-01-24T04:09:53.674Z,20.35
2019-01-24T04:12:23.394Z,21.02
2019-01-24T04:14:53.075Z,19.85
2019-01-24T04:17:22.803Z,21.68
2019-01-24T04:19:52.686Z,19.80
2019-01-24T04:22:22.421Z,21.30
2019-01-24T04:24:52.111Z,22.15
2019-01-24T04:27:21.883Z,25.80
2019-01-24T04:29:51.558Z,21.35
2019-01-24T04:32:21.320Z,23.40
2019-01-24T04:34:50.973Z,20.75
2019-01-24T04:37:20.951Z,23.60
2019-01-24T04:39:50.632Z,23.10
2019-01-24T04:42:20.396Z,21.70
2019-01-24T04:44:50.173Z,22.37
2019-01-24T04:47:19.849Z,24.50
2019-01-24T04:49:50.821Z,22.60
2019-01-24T04:52:20.584Z,22.35
2019-01-24T04:54:50.263Z,23.83
2019-01-24T04:57:20.006Z,21.97
2019-01-24T04:59:49.665Z,22.22
2019-01-24T05:02:19.460Z,23.77
2019-01-24T05:04:49.166Z,21.65
2019-01-24T05:07:18.874Z,24.00
2019-01-24T05:09:48.591Z,21.97
2019-01-24T05:12:18.256Z,24.02
2019-01-24T05:14:47.992Z,22.62
2019-01-24T05:17:17.696Z,22.15
2019-01-24T05:19:47.362Z,24.12
2019-01-24T05:22:17.072Z,23.00
2019-01-24T05:24:46.739Z,22.98
2019-01-24T05:27:16.412Z,23.90
2019-01-24T05:29:48.104Z,24.20
2019-01-24T05:32:17.776Z,20.27
2019-01-24T05:34:47.459Z,23.77
2019-01-24T05:37:17.130Z,21.30
2019-01-24T05:39:46.846Z,23.32
2019-01-24T05:42:16.628Z,22.73
2019-01-24T05:44:46.343Z,22.42
2019-01-24T05:47:16.254Z,25.57
2019-01-24T05:49:45.890Z,22.62
2019-01-24T05:52:19.758Z,21.48
2019-01-24T05:54:47.000Z,19.98
2019-01-24T05:57:16.626Z,18.77
2019-01-24T05:59:46.417Z,21.60
2019-01-24T06:02:16.127Z,22.05
2019-01-24T06:04:46.032Z,21.27
2019-01-24T06:07:15.719Z,21.00
2019-01-24T06:09:45.383Z,21.60
2019-01-24T06:12:15.252Z,24.18
2019-01-24T06:14:44.915Z,20.55
2019-01-24T06:17:14.631Z,22.82
2019-01-24T06:19:44.436Z,21.05
2019-01-24T06:22:15.371Z,24.35
2019-01-24T06:24:45.235Z,21.55
2019-01-24T06:27:14.911Z,22.85
2019-01-24T06:29:44.685Z,20.60
2019-01-24T06:32:14.352Z,21.15
2019-01-24T06:34:43.987Z,21.17
2019-01-24T06:37:13.677Z,24.70
2019-01-24T06:39:43.944Z,20.40
2019-01-24T06:42:13.754Z,23.45
2019-01-24T06:44:43.398Z,22.55
2019-01-24T06:47:13.255Z,26.55
2019-01-24T06:49:42.962Z,23.62
2019-01-24T06:52:12.593Z,21.97
2019-01-24T06:54:42.463Z,24.20
2019-01-24T06:57:12.153Z,23.00
2019-01-24T06:59:41.952Z,22.10
2019-01-24T07:02:11.714Z,22.55
2019-01-24T07:04:41.452Z,23.50
2019-01-24T07:07:11.485Z,25.88
2019-01-24T07:09:41.118Z,22.75
2019-01-24T07:12:10.806Z,21.35
2019-01-24T07:14:40.495Z,24.80
2019-01-24T07:17:10.142Z,24.35
2019-01-24T07:19:39.947Z,23.50
2019-01-24T07:22:12.458Z,22.95
2019-01-24T07:24:44.043Z,21.97
2019-01-24T07:27:13.699Z,22.10
2019-01-24T07:29:43.442Z,22.75
2019-01-24T07:32:13.149Z,23.07
2019-01-24T07:34:42.836Z,22.35
2019-01-24T07:37:12.614Z,23.47
2019-01-24T07:39:42.487Z,23.77
2019-01-24T07:42:12.347Z,23.65
2019-01-24T07:44:42.220Z,23.30
2019-01-24T07:47:11.911Z,23.80
2019-01-24T07:49:41.618Z,26.80
2019-01-24T07:52:12.723Z,22.15
2019-01-24T07:54:42.520Z,22.35
2019-01-24T07:57:12.190Z,22.73
2019-01-24T07:59:42.000Z,22.60
2019-01-24T08:02:11.813Z,23.10
2019-01-24T08:04:41.547Z,23.95
2019-01-24T08:07:11.423Z,25.90
2019-01-24T08:09:41.090Z,25.50
2019-01-24T08:12:10.752Z,23.47
2019-01-24T08:14:40.475Z,25.02
2019-01-24T08:17:12.108Z,22.02
2019-01-24T08:19:43.999Z,23.50
2019-01-24T08:22:13.780Z,21.80
2019-01-24T08:24:43.474Z,25.50
2019-01-24T08:27:13.196Z,23.02
2019-01-24T08:29:42.863Z,25.08
2019-01-24T08:32:12.719Z,23.80
2019-01-24T08:34:42.420Z,21.62
2019-01-24T08:37:12.227Z,22.70
2019-01-24T08:39:41.942Z,21.70
2019-01-24T08:42:11.652Z,24.18
2019-01-24T08:44:44.744Z,25.57
2019-01-24T08:47:15.498Z,21.30
2019-01-24T08:49:45.177Z,23.47
2019-01-24T08:52:14.888Z,22.13
2019-01-24T08:54:44.602Z,20.48
2019-01-24T08:57:14.497Z,22.15
2019-01-24T08:59:44.142Z,19.15
2019-01-24T09:02:13.824Z,19.62
2019-01-24T09:04:43.924Z,18.10
2019-01-24T09:07:13.939Z,18.82
2019-01-24T09:09:44.139Z,18.55
2019-01-24T09:12:18.032Z,19.30
2019-01-24T09:14:47.875Z,18.82
2019-01-24T09:17:17.551Z,19.70
2019-01-24T09:19:47.223Z,20.37
2019-01-24T09:22:16.917Z,20.80
2019-01-24T09:24:46.584Z,18.55
2019-01-24T09:27:16.440Z,20.27
2019-01-24T09:29:46.112Z,19.85
2019-01-24T09:32:15.824Z,20.37
2019-01-24T09:34:45.758Z,18.42
2019-01-24T09:37:15.416Z,16.85
2019-01-24T09:39:45.164Z,18.90
2019-01-24T09:42:14.902Z,20.77
2019-01-24T09:44:44.574Z,19.25
2019-01-24T09:47:17.366Z,18.60
2019-01-24T09:49:47.161Z,19.60
2019-01-24T09:52:16.918Z,20.32
2019-01-24T09:54:46.623Z,20.62
2019-01-24T09:57:16.337Z,19.55
2019-01-24T09:59:46.035Z,20.05
2019-01-24T10:02:15.747Z,20.65
2019-01-24T10:04:45.576Z,19.55
2019-01-24T10:07:15.417Z,19.73
2019-01-24T10:09:45.268Z,21.52
2019-01-24T10:12:14.971Z,20.50
2019-01-24T10:14:44.862Z,18.98
2019-01-24T10:17:14.596Z,21.33
2019-01-24T10:19:44.243Z,22.58
2019-01-24T10:22:13.932Z,19.52
2019-01-24T10:24:43.603Z,18.73
2019-01-24T10:27:13.255Z,20.85
2019-01-24T10:29:42.942Z,19.67
2019-01-24T10:32:12.587Z,22.75
2019-01-24T10:34:42.694Z,19.95
2019-01-24T10:37:13.480Z,18.87
2019-01-24T10:39:43.139Z,18.05
2019-01-24T10:42:12.840Z,21.20
2019-01-24T10:44:42.660Z,19.55
2019-01-24T10:47:12.424Z,20.10
2019-01-24T10:49:42.071Z,19.75
2019-01-24T10:52:11.726Z,20.45
2019-01-24T10:54:41.411Z,20.35
2019-01-24T10:57:11.074Z,20.32
2019-01-24T10:59:40.823Z,20.70
2019-01-24T11:02:12.359Z,21.55
2019-01-24T11:04:42.031Z,21.35
2019-01-24T11:07:11.768Z,20.12
2019-01-24T11:09:41.416Z,19.20
2019-01-24T11:12:11.150Z,20.23
2019-01-24T11:14:40.816Z,21.07
2019-01-24T11:17:10.471Z,21.70
2019-01-24T11:19:40.187Z,19.12
2019-01-24T11:22:09.837Z,19.95
2019-01-24T11:24:39.530Z,18.80
2019-01-24T11:27:09.175Z,18.60
2019-01-24T11:29:38.839Z,19.20
2019-01-24T11:32:08.666Z,20.08
2019-01-24T11:34:38.324Z,23.12
2019-01-24T11:37:07.984Z,20.00
2019-01-24T11:39:37.719Z,21.37
2019-01-24T11:42:07.410Z,19.98
2019-01-24T11:44:37.059Z,19.75
2019-01-24T11:47:08.842Z,19.12
2019-01-24T11:49:38.502Z,20.17
2019-01-24T11:52:08.357Z,17.80
2019-01-24T11:54:38.291Z,21.77
2019-01-24T11:57:08.962Z,18.12
2019-01-24T11:59:38.652Z,18.07
2019-01-24T12:02:08.832Z,17.82
2019-01-24T12:04:38.927Z,17.50
2019-01-24T12:07:08.798Z,19.32
2019-01-24T12:09:39.995Z,18.48
2019-01-24T12:12:09.634Z,19.95
2019-01-24T12:14:39.317Z,23.27
2019-01-24T12:17:09.087Z,19.05
2019-01-24T12:19:38.752Z,16.30
2019-01-24T12:22:08.392Z,17.20
2019-01-24T12:24:38.090Z,18.35
2019-01-24T12:27:07.754Z,17.48
2019-01-24T12:29:37.550Z,17.37
2019-01-24T12:32:07.373Z,18.25
2019-01-24T12:34:37.071Z,20.23
2019-01-24T12:37:11.349Z,18.75
2019-01-24T12:39:38.422Z,16.52
2019-01-24T12:42:08.147Z,17.30
2019-01-24T12:44:37.922Z,17.07
2019-01-24T12:47:07.732Z,19.23
2019-01-24T12:49:37.395Z,18.30
2019-01-24T12:52:07.176Z,16.67
2019-01-24T12:54:36.819Z,14.80
2019-01-24T12:57:08.021Z,14.25
2019-01-24T12:59:37.810Z,16.45
2019-01-24T13:02:07.596Z,16.85
2019-01-24T13:04:37.549Z,21.27
2019-01-24T13:07:07.293Z,18.00
2019-01-24T13:09:36.972Z,16.05
2019-01-24T13:12:08.016Z,15.03
2019-01-24T13:14:37.692Z,17.70
2019-01-24T13:17:07.339Z,18.30
2019-01-24T13:19:37.080Z,17.32
2019-01-24T13:22:06.968Z,17.25
2019-01-24T13:24:38.431Z,20.88
2019-01-24T13:27:08.118Z,19.45
2019-01-24T13:29:37.820Z,18.07
2019-01-24T13:32:07.547Z,18.75
2019-01-24T13:34:37.233Z,18.62
2019-01-24T13:37:07.104Z,16.60
2019-01-24T13:39:36.765Z,22.90
2019-01-24T13:42:07.302Z,20.30
2019-01-24T13:44:37.069Z,20.35
2019-01-24T13:47:09.456Z,21.60
2019-01-24T13:49:40.609Z,17.37
2019-01-24T13:52:10.340Z,19.32
2019-01-24T13:54:39.991Z,18.77
2019-01-24T13:57:09.678Z,18.12
2019-01-24T13:59:40.457Z,19.37
2019-01-24T14:02:10.339Z,19.25
2019-01-24T14:04:48.519Z,22.42
2019-01-24T14:07:18.311Z,23.47
2019-01-24T14:09:48.269Z,21.70
2019-01-24T14:12:18.189Z,27.22
2019-01-24T14:14:48.083Z,22.75
2019-01-24T14:17:17.719Z,24.20
2019-01-24T14:19:47.427Z,24.40
2019-01-24T14:22:18.402Z,20.90
2019-01-24T14:24:48.098Z,21.90
2019-01-24T14:27:17.803Z,25.23
2019-01-24T14:29:47.467Z,22.80
2019-01-24T14:32:17.278Z,22.45
2019-01-24T14:34:47.091Z,24.20
2019-01-24T14:37:16.857Z,23.27
2019-01-24T14:39:46.579Z,24.55
2019-01-24T14:42:16.273Z,24.27
2019-01-24T14:44:46.099Z,22.55
2019-01-24T14:47:15.779Z,24.25
2019-01-24T14:49:45.491Z,24.23
2019-01-24T14:52:15.247Z,22.22
2019-01-24T14:54:45.041Z,23.47
2019-01-24T14:57:18.184Z,26.33
2019-01-24T14:59:48.124Z,21.55
2019-01-24T15:02:17.823Z,23.07
2019-01-24T15:04:47.625Z,21.00
2019-01-24T15:07:17.505Z,24.55
2019-01-24T15:09:47.163Z,22.62
2019-01-24T15:12:16.828Z,22.62
2019-01-24T15:14:46.601Z,18.10
2019-01-24T15:17:16.530Z,21.20
2019-01-24T15:19:46.251Z,20.08
2019-01-24T15:22:15.951Z,18.60
2019-01-24T15:24:45.671Z,15.98
2019-01-24T15:27:15.382Z,19.30
2019-01-24T15:29:45.026Z,20.90
2019-01-24T15:32:14.723Z,16.93
2019-01-24T15:34:44.470Z,16.57
2019-01-24T15:37:14.277Z,22.40
2019-01-24T15:39:43.943Z,17.85
2019-01-24T15:42:13.593Z,18.95
2019-01-24T15:44:43.300Z,19.77
2019-01-24T15:47:13.044Z,21.55
2019-01-24T15:49:42.759Z,17.92
2019-01-24T15:52:12.843Z,21.52
2019-01-24T15:54:42.538Z,20.37
2019-01-24T15:57:12.269Z,20.45
2019-01-24T15:59:42.011Z,20.95
2019-01-24T16:02:11.812Z,21.40
2019-01-24T16:04:41.512Z,24.82
2019-01-24T16:07:11.311Z,21.00
2019-01-24T16:09:41.194Z,20.82
2019-01-24T16:12:11.016Z,19.27
2019-01-24T16:14:40.748Z,26.50
2019-01-24T16:17:10.437Z,22.65
2019-01-24T16:19:43.009Z,20.32
2019-01-24T16:22:12.768Z,22.73
2019-01-24T16:24:42.494Z,21.90
2019-01-24T16:27:32.948Z,19.85
2019-01-24T16:30:04.862Z,20.68
2019-01-24T16:32:34.983Z,22.42
2019-01-24T16:35:05.024Z,19.57
2019-01-24T16:37:34.672Z,22.30
2019-01-24T16:40:05.549Z,21.87
2019-01-24T16:42:35.232Z,23.40
2019-01-24T16:45:05.868Z,21.00
2019-01-24T16:47:38.324Z,19.57
2019-01-24T16:50:29.163Z,21.50
2019-01-24T16:53:01.377Z,22.58
2019-01-24T16:55:38.804Z,27.95
2019-01-24T16:58:16.357Z,21.75
2019-01-24T17:01:04.637Z,21.20
2019-01-24T17:03:34.486Z,24.32
2019-01-24T17:06:04.328Z,27.45
2019-01-24T17:08:34.138Z,24.20
2019-01-24T17:11:03.915Z,21.65
2019-01-24T17:13:34.110Z,21.97
2019-01-24T17:16:04.634Z,20.80
2019-01-24T17:18:34.378Z,25.17
2019-01-24T17:21:07.500Z,21.52
2019-01-24T17:23:38.674Z,22.27
2019-01-24T17:26:08.599Z,21.73
2019-01-24T17:28:38.290Z,21.25
2019-01-24T17:31:08.016Z,22.07
2019-01-24T17:33:42.095Z,22.27
2019-01-24T17:36:11.986Z,22.07
2019-01-24T17:38:43.838Z,19.25
2019-01-24T17:41:13.599Z,18.67
2019-01-24T17:43:43.485Z,22.07
2019-01-24T17:46:13.507Z,18.32
2019-01-24T17:48:43.218Z,18.73
2019-01-24T17:51:20.241Z,21.20
2019-01-24T17:53:50.069Z,21.25
2019-01-24T17:56:20.012Z,18.75
2019-01-24T17:58:51.259Z,18.42
2019-01-24T18:01:21.256Z,18.40
2019-01-24T18:03:50.991Z,21.50
2019-01-24T18:06:22.944Z,19.37
2019-01-24T18:08:53.881Z,18.67
2019-01-24T18:11:23.739Z,16.90
2019-01-24T18:13:53.388Z,18.82
2019-01-24T18:16:24.511Z,21.05
2019-01-24T18:18:54.162Z,21.40
2019-01-24T18:21:23.981Z,23.05
2019-01-24T18:23:56.932Z,22.07
2019-01-24T18:26:26.765Z,24.25
2019-01-24T18:28:56.593Z,24.47
2019-01-24T18:31:26.315Z,23.62
2019-01-24T18:33:56.059Z,26.62
2019-01-24T18:36:25.989Z,25.80
2019-01-24T18:38:56.023Z,25.05
2019-01-24T18:41:27.709Z,25.68
2019-01-24T18:43:57.357Z,28.75
2019-01-24T18:46:27.205Z,25.92
2019-01-24T18:48:56.919Z,31.15
2019-01-24T18:51:26.633Z,28.07
2019-01-24T18:53:56.929Z,27.65
2019-01-24T18:56:27.843Z,30.27
2019-01-24T18:58:58.077Z,32.10
2019-01-24T19:01:27.748Z,29.07
2019-01-24T19:03:57.643Z,29.50
2019-01-24T19:06:27.342Z,29.80
2019-01-24T19:08:57.026Z,32.70
2019-01-24T19:11:26.881Z,30.55
2019-01-24T19:13:56.646Z,29.37
2019-01-24T19:16:26.321Z,29.37
2019-01-24T19:18:56.108Z,30.27
2019-01-24T19:21:25.822Z,31.33
2019-01-24T19:23:55.847Z,29.82
2019-01-24T19:26:25.766Z,30.92
2019-01-24T19:28:55.485Z,29.02
2019-01-24T19:31:25.491Z,30.27
2019-01-24T19:33:55.133Z,30.57
2019-01-24T19:36:24.855Z,32.05
2019-01-24T19:38:54.586Z,30.15
2019-01-24T19:41:24.476Z,34.23
2019-01-24T19:43:54.226Z,33.42
2019-01-24T19:46:23.952Z,33.02
2019-01-24T19:48:53.798Z,31.73
2019-01-24T19:51:23.478Z,32.48
2019-01-24T19:53:54.272Z,35.85
2019-01-24T19:56:25.193Z,33.92
2019-01-24T19:58:54.983Z,33.70
2019-01-24T20:01:26.723Z,32.20
2019-01-24T20:03:56.505Z,34.85
2019-01-24T20:06:28.189Z,31.77
2019-01-24T20:09:00.402Z,32.13
2019-01-24T20:11:30.467Z,34.92
2019-01-24T20:14:00.856Z,30.48
2019-01-24T20:16:31.011Z,34.53
2019-01-24T20:19:00.946Z,30.17
2019-01-24T20:21:30.757Z,33.60
2019-01-24T20:24:00.612Z,35.30
2019-01-24T20:26:30.635Z,34.10
2019-01-24T20:29:00.303Z,33.08
2019-01-24T20:31:32.313Z,32.45
2019-01-24T20:34:02.111Z,30.77
2019-01-24T20:36:31.779Z,29.42
2019-01-24T20:39:07.344Z,27.60
2019-01-24T20:41:33.085Z,28.73
2019-01-24T20:44:03.251Z,27.25
2019-01-24T20:46:32.969Z,28.77
2019-01-24T20:49:02.877Z,28.42
2019-01-24T20:51:32.592Z,26.55
2019-01-24T20:54:02.430Z,30.55
2019-01-24T20:56:32.231Z,27.27
2019-01-24T20:59:02.787Z,28.20
2019-01-24T21:01:32.503Z,29.35
2019-01-24T21:04:03.566Z,27.40
2019-01-24T21:06:33.240Z,28.60
2019-01-24T21:09:03.066Z,27.85
2019-01-24T21:11:32.863Z,30.57
2019-01-24T21:14:02.579Z,28.20
2019-01-24T21:16:32.552Z,28.77
2019-01-24T21:19:02.227Z,27.65
2019-01-24T21:21:32.305Z,29.90
2019-01-24T21:24:01.989Z,33.15
2019-01-24T21:26:31.893Z,29.70
2019-01-24T21:29:01.601Z,28.45
2019-01-24T21:31:31.266Z,29.02
2019-01-24T21:34:01.216Z,27.82
2019-01-24T21:36:30.955Z,28.55
2019-01-24T21:39:00.738Z,28.25
2019-01-24T21:41:30.658Z,25.23
2019-01-24T21:44:00.534Z,30.80
2019-01-24T21:46:30.503Z,27.93
2019-01-24T21:49:02.099Z,25.90
2019-01-24T21:51:32.083Z,25.88
2019-01-24T21:54:01.793Z,28.00
2019-01-24T21:56:32.531Z,25.77
2019-01-24T21:59:02.392Z,25.35
2019-01-24T22:01:32.072Z,25.92
2019-01-24T22:04:03.589Z,24.65
2019-01-24T22:06:33.356Z,23.57
2019-01-24T22:09:04.278Z,22.67
2019-01-24T22:11:34.023Z,23.30
2019-01-24T22:14:03.726Z,25.45
2019-01-24T22:16:33.422Z,22.15
2019-01-24T22:19:03.095Z,23.00
2019-01-24T22:21:32.749Z,22.35
2019-01-24T22:24:02.455Z,23.00
2019-01-24T22:26:32.142Z,23.80
2019-01-24T22:29:01.782Z,22.15
2019-01-24T22:31:31.614Z,25.60
2019-01-24T22:34:01.424Z,23.65
2019-01-24T22:36:31.105Z,25.97
2019-01-24T22:39:01.202Z,23.35
2019-01-24T22:41:30.869Z,25.35
2019-01-24T22:44:00.542Z,23.27
2019-01-24T22:46:30.266Z,21.75
2019-01-24T22:48:59.942Z,21.45
2019-01-24T22:51:29.675Z,20.15
2019-01-24T22:53:59.382Z,21.42
2019-01-24T22:56:35.218Z,20.10
2019-01-24T22:59:00.435Z,22.60
2019-01-24T23:01:41.642Z,22.05
2019-01-24T23:04:17.129Z,20.60
2019-01-24T23:06:47.201Z,20.32
2019-01-24T23:09:16.864Z,21.65
2019-01-24T23:11:46.582Z,18.65
2019-01-24T23:14:16.274Z,21.17
2019-01-24T23:16:46.039Z,19.73
2019-01-24T23:19:15.784Z,21.40
2019-01-24T23:21:46.607Z,19.55
2019-01-24T23:24:16.289Z,19.40
2019-01-24T23:26:47.256Z,19.82
2019-01-24T23:29:16.935Z,21.95
2019-01-24T23:31:46.612Z,18.75
2019-01-24T23:34:16.305Z,18.62
2019-01-24T23:36:45.943Z,20.32
2019-01-24T23:39:15.663Z,19.10
2019-01-24T23:41:45.381Z,19.23
2019-01-24T23:44:15.039Z,19.10
2019-01-24T23:46:44.822Z,20.05
2019-01-24T23:49:14.543Z,20.60
2019-01-24T23:51:44.222Z,20.02
2019-01-24T23:54:14.124Z,21.23
2019-01-24T23:56:45.751Z,18.17
2019-01-24T23:59:15.539Z,17.92
